»·PEaware :: ACA314 KSEA-KMFR

ACA314 :: KSEA-KMFR

FLIGHT INFORMATION

Flight Status: Arrived
Operator:
Air Canada
More flights by this operator :: More flights under this callsign
Pilot: Tim B. (15084)
Aircraft: AIRBUS A320
(A320)
More flights by this aircraft type
Origin: KSEA Seattle-Tacoma Intl
United States
Destination: KMFR Rogue Valley Intl-Medford
United States
More flights between these airports :: More routes between these airports
Route: HAROB6 FEPOT OED
File this flight plan on PilotEdge
Remarks:
Altitude:
(Current/Filed)
29,000ft
Speed:
(Current/Filed)
500kts
Departed: 05-May-19 09:14 AM
Arrived: 05-May-19 10:21 AM
Distance/Time
Traveled:
306nm/1:07
Distance/Time
To Go:
Arrived

Flight Plot

Page will automatically refresh every two minutes.

Flight plan parsing failed; only flown route is shown


Map Options




Map Legend


Flown Route
Filed Route
Departure Airport
Arrival Airport
Navaid (VOR, NDB)
Fix

Horizontal Profiles

Position Reports

Time Latitude Longitude Heading Altitude Ground
Speed
05-May-19 08:28 47.440885 -122.300338 43 381ft 0kts
05-May-19 08:29 47.440885 -122.300338 43 381ft 0kts
05-May-19 08:30 47.440885 -122.300338 43 381ft 0kts
05-May-19 08:31 47.440885 -122.300338 43 381ft 0kts
05-May-19 08:32 47.440885 -122.300338 43 381ft 0kts
05-May-19 08:33 47.440885 -122.300338 43 381ft 0kts
05-May-19 08:34 47.440885 -122.300338 43 381ft 0kts
05-May-19 08:35 47.440885 -122.300338 43 381ft 0kts
05-May-19 08:36 47.440885 -122.300338 43 381ft 0kts
05-May-19 08:37 47.440885 -122.300338 43 381ft 0kts
05-May-19 08:38 47.440885 -122.300338 43 381ft 0kts
05-May-19 08:39 47.440885 -122.300338 43 381ft 0kts
05-May-19 08:40 47.440885 -122.300338 43 381ft 0kts
05-May-19 08:41 47.440885 -122.300338 43 381ft 0kts
05-May-19 08:42 47.440885 -122.300338 43 381ft 0kts
05-May-19 08:42 47.440885 -122.300338 43 381ft 0kts
05-May-19 08:44 47.440885 -122.300338 43 381ft 0kts
05-May-19 08:48 47.440887 -122.300331 43 381ft 0kts
05-May-19 08:50 47.440887 -122.300331 43 381ft 0kts
05-May-19 08:50 47.440887 -122.300331 43 381ft 0kts
05-May-19 08:51 47.440887 -122.300331 43 381ft 0kts
05-May-19 08:52 47.440887 -122.300331 43 381ft 0kts
05-May-19 08:53 47.440887 -122.300331 43 381ft 0kts
05-May-19 08:54 47.440887 -122.300331 43 381ft 0kts
05-May-19 08:55 47.440887 -122.300331 43 381ft 0kts
05-May-19 08:56 47.440887 -122.300331 43 381ft 0kts
05-May-19 08:57 47.440887 -122.300331 43 381ft 0kts
05-May-19 08:58 47.440887 -122.300331 43 381ft 0kts
05-May-19 08:59 47.440887 -122.300331 43 381ft 0kts
05-May-19 09:00 47.440887 -122.300331 43 381ft 0kts
05-May-19 09:01 47.440605 -122.300727 43 381ft 2kts
05-May-19 09:02 47.440208 -122.300845 313 380ft 1kts
05-May-19 09:03 47.440169 -122.300777 313 380ft 0kts
05-May-19 09:04 47.440169 -122.300777 313 380ft 0kts
05-May-19 09:05 47.440202 -122.302645 232 380ft 8kts
05-May-19 09:06 47.440227 -122.306328 344 378ft 12kts
05-May-19 09:07 47.444783 -122.306312 0 393ft 21kts
05-May-19 09:08 47.451162 -122.306240 0 417ft 21kts
05-May-19 09:09 47.456329 -122.306191 0 439ft 21kts
05-May-19 09:10 47.462283 -122.306129 0 431ft 23kts
05-May-19 09:11 47.463170 -122.307766 178 412ft 4kts
05-May-19 09:12 47.463049 -122.307762 178 413ft 4kts
05-May-19 09:13 47.430096 -122.307902 179 1787ft 180kts
05-May-19 09:14 47.373353 -122.308564 179 4803ft 245kts
05-May-19 09:15 47.318002 -122.346142 243 8064ft 283kts
05-May-19 09:16 47.307346 -122.449234 262 12387ft 265kts
05-May-19 09:17 47.310267 -122.559524 262 14944ft 287kts
05-May-19 09:18 47.313553 -122.682472 263 15051ft 324kts
05-May-19 09:19 47.304994 -122.810936 242 16995ft 318kts
05-May-19 09:20 47.272513 -122.932184 241 19302ft 326kts
05-May-19 09:21 47.233570 -123.050064 219 21341ft 318kts
05-May-19 09:22 47.164445 -123.127571 212 23276ft 318kts
05-May-19 09:23 47.091674 -123.201433 201 24912ft 321kts
05-May-19 09:24 47.003021 -123.213551 181 26388ft 331kts
05-May-19 09:25 46.919003 -123.207341 181 27518ft 339kts
05-May-19 09:26 46.828512 -123.200825 180 28709ft 346kts
05-May-19 09:27 46.736181 -123.194205 180 28792ft 344kts
05-May-19 09:28 46.642087 -123.187522 180 28792ft 345kts
05-May-19 09:29 46.548195 -123.180870 180 28792ft 345kts
05-May-19 09:30 46.453624 -123.174196 180 28792ft 345kts
05-May-19 09:31 46.358246 -123.167489 180 28799ft 345kts
05-May-19 09:32 46.263400 -123.160842 180 28816ft 344kts
05-May-19 09:33 46.168205 -123.154196 180 28820ft 344kts
05-May-19 09:34 46.073186 -123.147584 180 28820ft 344kts
05-May-19 09:35 45.978221 -123.140998 180 28820ft 344kts
05-May-19 09:36 45.887526 -123.134731 180 28826ft 345kts
05-May-19 09:37 45.800304 -123.128720 180 28832ft 344kts
05-May-19 09:38 45.710847 -123.122577 180 28834ft 344kts
05-May-19 09:39 45.616296 -123.116106 180 28829ft 344kts
05-May-19 09:40 45.521005 -123.109606 180 28828ft 344kts
05-May-19 09:41 45.425681 -123.103126 181 28827ft 345kts
05-May-19 09:42 45.330261 -123.096661 180 28823ft 345kts
05-May-19 09:43 45.234772 -123.090212 180 28821ft 346kts
05-May-19 09:44 45.139248 -123.083784 180 28821ft 346kts
05-May-19 09:45 45.044435 -123.077430 180 28815ft 348kts
05-May-19 09:46 44.951919 -123.071254 181 28809ft 351kts
05-May-19 09:47 44.859217 -123.065072 180 28810ft 352kts
05-May-19 09:48 44.765036 -123.058809 181 28813ft 351kts
05-May-19 09:49 44.672098 -123.052657 180 28820ft 352kts
05-May-19 09:50 44.584467 -123.046872 180 28825ft 352kts
05-May-19 09:51 44.489094 -123.040597 180 28828ft 352kts
05-May-19 09:52 44.396564 -123.034528 181 28819ft 353kts
05-May-19 09:53 44.309178 -123.028815 180 28809ft 353kts
05-May-19 09:54 44.223350 -123.023219 181 28810ft 353kts
05-May-19 09:55 44.141322 -123.017887 181 28811ft 354kts
05-May-19 09:56 44.054213 -123.012239 181 28811ft 354kts
05-May-19 09:57 43.963249 -123.006336 181 28198ft 347kts
05-May-19 09:58 43.879404 -123.000908 181 26112ft 340kts
05-May-19 09:59 43.793747 -122.995401 181 24058ft 333kts
05-May-19 10:00 43.703093 -122.989588 182 21842ft 325kts
05-May-19 10:01 43.615469 -122.983980 182 19542ft 318kts
05-May-19 10:02 43.528721 -122.978406 182 17332ft 311kts
05-May-19 10:03 43.443502 -122.972981 182 15145ft 305kts
05-May-19 10:04 43.362670 -122.967853 182 13067ft 299kts
05-May-19 10:05 43.284978 -122.962988 182 11894ft 301kts
05-May-19 10:06 43.204216 -122.957914 182 11894ft 298kts
05-May-19 10:07 43.124146 -122.952892 182 11894ft 298kts
05-May-19 10:08 43.044937 -122.959332 191 11351ft 291kts
05-May-19 10:09 42.969429 -122.970325 184 9915ft 296kts
05-May-19 10:10 42.901036 -122.979968 183 9830ft 244kts
05-May-19 10:11 42.835969 -122.989201 182 8333ft 244kts
05-May-19 10:12 42.768830 -122.998752 183 7052ft 243kts
05-May-19 10:13 42.703463 -123.007999 184 7049ft 220kts
05-May-19 10:14 42.643181 -123.013453 165 7047ft 220kts
05-May-19 10:15 42.586187 -122.982617 161 6300ft 223kts
05-May-19 10:17 42.519129 -122.948320 159 4159ft 222kts
05-May-19 10:17 42.473987 -122.924366 157 3163ft 195kts
05-May-19 10:18 42.427885 -122.900800 160 2227ft 145kts
05-May-19 10:19 42.393231 -122.882971 158 1510ft 132kts
05-May-19 10:20 42.370220 -122.870816 160 1323ft 8kts
05-May-19 10:21 42.368839 -122.872714 248 1323ft 8kts

Navigation Log

Ident Type
Flight plan parsing failed, navigation log unavailable